sensor_id;sensor_type;location;lat;lon;timestamp;P1;durP1;ratioP1;P2;durP2;ratioP2
72273;SDS011;60208;48.692;8.948;2024-01-30T00:00:32;29.85;;;17.13;;
72273;SDS011;60208;48.692;8.948;2024-01-30T00:03:00;29.00;;;16.65;;
72273;SDS011;60208;48.692;8.948;2024-01-30T00:05:25;29.23;;;17.35;;
72273;SDS011;60208;48.692;8.948;2024-01-30T00:07:50;34.83;;;20.00;;
72273;SDS011;60208;48.692;8.948;2024-01-30T00:10:15;31.00;;;18.08;;
72273;SDS011;60208;48.692;8.948;2024-01-30T00:12:41;17.50;;;12.10;;
72273;SDS011;60208;48.692;8.948;2024-01-30T00:15:06;20.33;;;12.67;;
72273;SDS011;60208;48.692;8.948;2024-01-30T00:17:34;19.77;;;13.65;;
72273;SDS011;60208;48.692;8.948;2024-01-30T00:20:00;18.75;;;12.10;;
72273;SDS011;60208;48.692;8.948;2024-01-30T00:22:25;16.38;;;12.07;;
72273;SDS011;60208;48.692;8.948;2024-01-30T00:24:50;20.00;;;12.77;;
72273;SDS011;60208;48.692;8.948;2024-01-30T00:27:16;20.17;;;13.02;;
72273;SDS011;60208;48.692;8.948;2024-01-30T00:29:41;20.88;;;12.77;;
72273;SDS011;60208;48.692;8.948;2024-01-30T00:32:06;18.58;;;12.50;;
72273;SDS011;60208;48.692;8.948;2024-01-30T00:34:31;17.42;;;11.45;;
72273;SDS011;60208;48.692;8.948;2024-01-30T00:36:57;17.33;;;12.05;;
72273;SDS011;60208;48.692;8.948;2024-01-30T00:39:22;18.63;;;12.73;;
72273;SDS011;60208;48.692;8.948;2024-01-30T00:41:47;17.27;;;11.52;;
72273;SDS011;60208;48.692;8.948;2024-01-30T00:44:12;20.60;;;12.80;;
72273;SDS011;60208;48.692;8.948;2024-01-30T00:46:38;22.67;;;12.32;;
72273;SDS011;60208;48.692;8.948;2024-01-30T00:49:03;17.05;;;11.43;;
72273;SDS011;60208;48.692;8.948;2024-01-30T00:51:28;16.20;;;9.35;;
72273;SDS011;60208;48.692;8.948;2024-01-30T00:53:54;14.68;;;10.30;;
72273;SDS011;60208;48.692;8.948;2024-01-30T00:56:20;16.38;;;11.05;;
72273;SDS011;60208;48.692;8.948;2024-01-30T00:58:45;20.02;;;12.70;;
72273;SDS011;60208;48.692;8.948;2024-01-30T01:01:10;21.50;;;13.00;;
72273;SDS011;60208;48.692;8.948;2024-01-30T01:03:36;16.92;;;11.95;;
72273;SDS011;60208;48.692;8.948;2024-01-30T01:06:01;17.88;;;12.18;;
72273;SDS011;60208;48.692;8.948;2024-01-30T01:08:26;16.88;;;11.45;;
72273;SDS011;60208;48.692;8.948;2024-01-30T01:10:52;17.27;;;11.30;;
72273;SDS011;60208;48.692;8.948;2024-01-30T01:13:17;16.58;;;11.02;;
72273;SDS011;60208;48.692;8.948;2024-01-30T01:15:42;19.08;;;12.15;;
72273;SDS011;60208;48.692;8.948;2024-01-30T01:18:07;16.45;;;10.98;;
72273;SDS011;60208;48.692;8.948;2024-01-30T01:20:33;16.77;;;12.13;;
72273;SDS011;60208;48.692;8.948;2024-01-30T01:22:58;17.08;;;11.57;;
72273;SDS011;60208;48.692;8.948;2024-01-30T01:25:23;20.23;;;12.48;;
72273;SDS011;60208;48.692;8.948;2024-01-30T01:27:49;18.65;;;11.85;;
72273;SDS011;60208;48.692;8.948;2024-01-30T01:30:17;16.08;;;10.50;;
72273;SDS011;60208;48.692;8.948;2024-01-30T01:32:47;16.85;;;10.10;;
72273;SDS011;60208;48.692;8.948;2024-01-30T01:35:19;15.25;;;9.82;;
72273;SDS011;60208;48.692;8.948;2024-01-30T01:37:45;15.15;;;9.65;;
72273;SDS011;60208;48.692;8.948;2024-01-30T01:40:10;14.80;;;9.32;;
72273;SDS011;60208;48.692;8.948;2024-01-30T01:42:38;12.25;;;7.97;;
72273;SDS011;60208;48.692;8.948;2024-01-30T01:45:03;13.32;;;8.95;;
72273;SDS011;60208;48.692;8.948;2024-01-30T01:47:28;12.27;;;8.23;;
72273;SDS011;60208;48.692;8.948;2024-01-30T01:49:54;12.98;;;9.00;;
72273;SDS011;60208;48.692;8.948;2024-01-30T01:52:19;15.70;;;9.27;;
72273;SDS011;60208;48.692;8.948;2024-01-30T01:54:45;11.75;;;8.68;;
72273;SDS011;60208;48.692;8.948;2024-01-30T01:57:10;13.00;;;8.68;;
72273;SDS011;60208;48.692;8.948;2024-01-30T01:59:35;14.52;;;9.02;;
72273;SDS011;60208;48.692;8.948;2024-01-30T02:02:01;15.20;;;9.65;;
72273;SDS011;60208;48.692;8.948;2024-01-30T02:04:27;13.68;;;9.50;;
72273;SDS011;60208;48.692;8.948;2024-01-30T02:06:52;14.85;;;9.25;;
72273;SDS011;60208;48.692;8.948;2024-01-30T02:09:17;12.32;;;8.93;;
72273;SDS011;60208;48.692;8.948;2024-01-30T02:11:43;16.08;;;9.68;;
72273;SDS011;60208;48.692;8.948;2024-01-30T02:14:08;12.93;;;9.23;;
72273;SDS011;60208;48.692;8.948;2024-01-30T02:16:34;13.20;;;9.48;;
72273;SDS011;60208;48.692;8.948;2024-01-30T02:18:59;13.63;;;9.68;;
72273;SDS011;60208;48.692;8.948;2024-01-30T02:21:24;14.50;;;10.02;;
72273;SDS011;60208;48.692;8.948;2024-01-30T02:23:49;13.73;;;9.65;;
72273;SDS011;60208;48.692;8.948;2024-01-30T02:26:15;15.02;;;9.48;;
72273;SDS011;60208;48.692;8.948;2024-01-30T02:28:41;16.73;;;9.10;;
72273;SDS011;60208;48.692;8.948;2024-01-30T02:31:06;15.40;;;9.02;;
72273;SDS011;60208;48.692;8.948;2024-01-30T02:33:31;12.15;;;8.52;;
72273;SDS011;60208;48.692;8.948;2024-01-30T02:35:57;13.60;;;8.85;;
72273;SDS011;60208;48.692;8.948;2024-01-30T02:38:22;12.48;;;8.55;;
72273;SDS011;60208;48.692;8.948;2024-01-30T02:40:48;14.60;;;9.48;;
72273;SDS011;60208;48.692;8.948;2024-01-30T02:43:13;12.70;;;8.80;;
72273;SDS011;60208;48.692;8.948;2024-01-30T02:45:38;12.35;;;9.05;;
72273;SDS011;60208;48.692;8.948;2024-01-30T02:48:04;14.07;;;9.30;;
72273;SDS011;60208;48.692;8.948;2024-01-30T02:50:29;12.18;;;9.38;;
72273;SDS011;60208;48.692;8.948;2024-01-30T02:52:54;13.85;;;9.20;;
72273;SDS011;60208;48.692;8.948;2024-01-30T02:55:20;13.93;;;9.20;;
72273;SDS011;60208;48.692;8.948;2024-01-30T02:57:45;13.95;;;9.52;;
72273;SDS011;60208;48.692;8.948;2024-01-30T03:00:10;14.73;;;9.40;;
72273;SDS011;60208;48.692;8.948;2024-01-30T03:02:36;18.02;;;9.02;;
72273;SDS011;60208;48.692;8.948;2024-01-30T03:05:02;13.20;;;8.95;;
72273;SDS011;60208;48.692;8.948;2024-01-30T03:07:28;14.35;;;9.13;;
72273;SDS011;60208;48.692;8.948;2024-01-30T03:09:53;10.60;;;8.07;;
72273;SDS011;60208;48.692;8.948;2024-01-30T03:12:20;12.48;;;9.10;;
72273;SDS011;60208;48.692;8.948;2024-01-30T03:14:45;13.95;;;8.82;;
72273;SDS011;60208;48.692;8.948;2024-01-30T03:17:11;16.10;;;8.73;;
72273;SDS011;60208;48.692;8.948;2024-01-30T03:19:36;12.57;;;8.40;;
72273;SDS011;60208;48.692;8.948;2024-01-30T03:22:01;11.63;;;8.40;;
72273;SDS011;60208;48.692;8.948;2024-01-30T03:24:26;13.00;;;8.73;;
72273;SDS011;60208;48.692;8.948;2024-01-30T03:26:52;15.60;;;8.70;;
72273;SDS011;60208;48.692;8.948;2024-01-30T03:29:17;11.82;;;8.95;;
72273;SDS011;60208;48.692;8.948;2024-01-30T03:31:42;13.07;;;8.25;;
72273;SDS011;60208;48.692;8.948;2024-01-30T03:34:07;15.32;;;8.45;;
72273;SDS011;60208;48.692;8.948;2024-01-30T03:36:33;13.68;;;9.13;;
72273;SDS011;60208;48.692;8.948;2024-01-30T03:38:59;12.77;;;8.63;;
72273;SDS011;60208;48.692;8.948;2024-01-30T03:41:24;13.93;;;9.30;;
72273;SDS011;60208;48.692;8.948;2024-01-30T03:43:50;11.65;;;8.50;;
72273;SDS011;60208;48.692;8.948;2024-01-30T03:46:15;11.20;;;7.60;;
72273;SDS011;60208;48.692;8.948;2024-01-30T03:48:40;12.15;;;7.80;;
72273;SDS011;60208;48.692;8.948;2024-01-30T03:51:05;12.07;;;7.13;;
72273;SDS011;60208;48.692;8.948;2024-01-30T03:53:31;12.37;;;8.27;;
72273;SDS011;60208;48.692;8.948;2024-01-30T03:55:56;10.60;;;7.05;;
72273;SDS011;60208;48.692;8.948;2024-01-30T03:58:21;11.57;;;7.88;;
72273;SDS011;60208;48.692;8.948;2024-01-30T04:00:47;10.18;;;7.15;;
72273;SDS011;60208;48.692;8.948;2024-01-30T04:03:12;12.80;;;8.38;;
72273;SDS011;60208;48.692;8.948;2024-01-30T04:05:37;10.95;;;7.13;;
72273;SDS011;60208;48.692;8.948;2024-01-30T04:08:02;11.15;;;7.25;;
72273;SDS011;60208;48.692;8.948;2024-01-30T04:10:28;10.68;;;6.70;;
72273;SDS011;60208;48.692;8.948;2024-01-30T04:12:56;8.93;;;6.63;;
72273;SDS011;60208;48.692;8.948;2024-01-30T04:15:21;12.95;;;6.97;;
72273;SDS011;60208;48.692;8.948;2024-01-30T04:17:46;8.98;;;6.75;;
72273;SDS011;60208;48.692;8.948;2024-01-30T04:20:15;10.52;;;6.63;;
72273;SDS011;60208;48.692;8.948;2024-01-30T04:22:42;8.77;;;6.63;;
72273;SDS011;60208;48.692;8.948;2024-01-30T04:25:08;9.20;;;6.55;;
72273;SDS011;60208;48.692;8.948;2024-01-30T04:27:33;10.90;;;7.20;;
72273;SDS011;60208;48.692;8.948;2024-01-30T04:29:58;10.07;;;6.30;;
72273;SDS011;60208;48.692;8.948;2024-01-30T04:32:23;12.50;;;7.10;;
72273;SDS011;60208;48.692;8.948;2024-01-30T04:34:48;10.27;;;7.43;;
72273;SDS011;60208;48.692;8.948;2024-01-30T04:37:14;9.68;;;7.05;;
72273;SDS011;60208;48.692;8.948;2024-01-30T04:39:39;12.68;;;7.07;;
72273;SDS011;60208;48.692;8.948;2024-01-30T04:42:04;10.15;;;6.35;;
72273;SDS011;60208;48.692;8.948;2024-01-30T04:44:29;8.63;;;6.28;;
72273;SDS011;60208;48.692;8.948;2024-01-30T04:46:55;9.50;;;6.57;;
72273;SDS011;60208;48.692;8.948;2024-01-30T04:49:23;11.18;;;6.53;;
72273;SDS011;60208;48.692;8.948;2024-01-30T04:51:49;8.85;;;6.38;;
72273;SDS011;60208;48.692;8.948;2024-01-30T04:54:14;10.25;;;6.47;;
72273;SDS011;60208;48.692;8.948;2024-01-30T04:56:39;9.82;;;6.45;;
72273;SDS011;60208;48.692;8.948;2024-01-30T04:59:04;10.32;;;6.50;;
72273;SDS011;60208;48.692;8.948;2024-01-30T05:01:30;9.05;;;6.40;;
72273;SDS011;60208;48.692;8.948;2024-01-30T05:03:55;9.55;;;6.10;;
72273;SDS011;60208;48.692;8.948;2024-01-30T05:06:24;11.63;;;7.72;;
72273;SDS011;60208;48.692;8.948;2024-01-30T05:08:49;10.70;;;7.20;;
72273;SDS011;60208;48.692;8.948;2024-01-30T05:11:14;17.80;;;9.85;;
72273;SDS011;60208;48.692;8.948;2024-01-30T05:13:40;15.70;;;10.35;;
72273;SDS011;60208;48.692;8.948;2024-01-30T05:16:05;16.42;;;11.65;;
72273;SDS011;60208;48.692;8.948;2024-01-30T05:18:30;18.38;;;10.77;;
72273;SDS011;60208;48.692;8.948;2024-01-30T05:20:55;15.15;;;10.80;;
72273;SDS011;60208;48.692;8.948;2024-01-30T05:23:21;16.67;;;10.73;;
72273;SDS011;60208;48.692;8.948;2024-01-30T05:25:46;17.17;;;11.68;;
72273;SDS011;60208;48.692;8.948;2024-01-30T05:28:11;14.18;;;10.07;;
72273;SDS011;60208;48.692;8.948;2024-01-30T05:30:36;14.73;;;10.13;;
72273;SDS011;60208;48.692;8.948;2024-01-30T05:33:01;15.38;;;9.73;;
72273;SDS011;60208;48.692;8.948;2024-01-30T05:35:27;13.48;;;9.73;;
72273;SDS011;60208;48.692;8.948;2024-01-30T05:37:52;15.07;;;10.32;;
72273;SDS011;60208;48.692;8.948;2024-01-30T05:40:18;15.15;;;10.18;;
72273;SDS011;60208;48.692;8.948;2024-01-30T05:42:43;14.15;;;9.88;;
72273;SDS011;60208;48.692;8.948;2024-01-30T05:45:09;12.40;;;8.85;;
72273;SDS011;60208;48.692;8.948;2024-01-30T05:47:34;15.55;;;9.57;;
72273;SDS011;60208;48.692;8.948;2024-01-30T05:50:00;14.88;;;9.93;;
72273;SDS011;60208;48.692;8.948;2024-01-30T05:52:25;16.73;;;10.00;;
72273;SDS011;60208;48.692;8.948;2024-01-30T05:54:50;13.05;;;8.80;;
72273;SDS011;60208;48.692;8.948;2024-01-30T05:57:15;13.50;;;9.30;;
72273;SDS011;60208;48.692;8.948;2024-01-30T05:59:41;14.90;;;10.07;;
72273;SDS011;60208;48.692;8.948;2024-01-30T06:02:06;15.60;;;10.10;;
72273;SDS011;60208;48.692;8.948;2024-01-30T06:04:31;16.40;;;11.05;;
72273;SDS011;60208;48.692;8.948;2024-01-30T06:06:56;15.15;;;10.77;;
72273;SDS011;60208;48.692;8.948;2024-01-30T06:09:22;15.13;;;10.80;;
72273;SDS011;60208;48.692;8.948;2024-01-30T06:11:47;17.33;;;11.63;;
72273;SDS011;60208;48.692;8.948;2024-01-30T06:14:12;16.20;;;11.57;;
72273;SDS011;60208;48.692;8.948;2024-01-30T06:16:38;17.23;;;11.98;;
72273;SDS011;60208;48.692;8.948;2024-01-30T06:19:03;20.58;;;11.77;;
72273;SDS011;60208;48.692;8.948;2024-01-30T06:21:28;18.38;;;11.05;;
72273;SDS011;60208;48.692;8.948;2024-01-30T06:23:53;15.18;;;10.63;;
72273;SDS011;60208;48.692;8.948;2024-01-30T06:26:19;16.15;;;11.43;;
72273;SDS011;60208;48.692;8.948;2024-01-30T06:28:44;15.95;;;11.73;;
72273;SDS011;60208;48.692;8.948;2024-01-30T06:31:09;17.02;;;11.82;;
72273;SDS011;60208;48.692;8.948;2024-01-30T06:33:34;17.60;;;11.77;;
72273;SDS011;60208;48.692;8.948;2024-01-30T06:36:00;18.38;;;11.40;;
72273;SDS011;60208;48.692;8.948;2024-01-30T06:38:25;15.05;;;10.95;;
72273;SDS011;60208;48.692;8.948;2024-01-30T06:40:50;14.63;;;10.93;;
72273;SDS011;60208;48.692;8.948;2024-01-30T06:43:15;14.93;;;11.38;;
72273;SDS011;60208;48.692;8.948;2024-01-30T06:45:41;18.58;;;11.77;;
72273;SDS011;60208;48.692;8.948;2024-01-30T06:48:07;15.88;;;11.40;;
72273;SDS011;60208;48.692;8.948;2024-01-30T06:50:32;20.40;;;11.32;;
72273;SDS011;60208;48.692;8.948;2024-01-30T06:52:58;17.95;;;11.93;;
72273;SDS011;60208;48.692;8.948;2024-01-30T06:55:23;28.58;;;12.95;;
72273;SDS011;60208;48.692;8.948;2024-01-30T06:57:48;18.33;;;12.55;;
72273;SDS011;60208;48.692;8.948;2024-01-30T07:00:13;18.65;;;12.38;;
72273;SDS011;60208;48.692;8.948;2024-01-30T07:02:39;18.90;;;11.68;;
72273;SDS011;60208;48.692;8.948;2024-01-30T07:05:05;19.45;;;11.77;;
72273;SDS011;60208;48.692;8.948;2024-01-30T07:07:30;20.92;;;11.23;;
72273;SDS011;60208;48.692;8.948;2024-01-30T07:09:55;17.92;;;11.90;;
72273;SDS011;60208;48.692;8.948;2024-01-30T07:12:22;14.93;;;11.32;;
72273;SDS011;60208;48.692;8.948;2024-01-30T07:14:47;17.25;;;11.65;;
72273;SDS011;60208;48.692;8.948;2024-01-30T07:17:13;17.23;;;12.02;;
72273;SDS011;60208;48.692;8.948;2024-01-30T07:19:38;19.08;;;12.05;;
72273;SDS011;60208;48.692;8.948;2024-01-30T07:22:03;15.93;;;11.23;;
72273;SDS011;60208;48.692;8.948;2024-01-30T07:24:29;16.50;;;12.15;;
72273;SDS011;60208;48.692;8.948;2024-01-30T07:26:54;18.75;;;13.25;;
72273;SDS011;60208;48.692;8.948;2024-01-30T07:29:19;18.23;;;12.48;;
72273;SDS011;60208;48.692;8.948;2024-01-30T07:31:45;17.92;;;12.02;;
72273;SDS011;60208;48.692;8.948;2024-01-30T07:34:10;19.77;;;12.82;;
72273;SDS011;60208;48.692;8.948;2024-01-30T07:36:35;19.75;;;12.55;;
72273;SDS011;60208;48.692;8.948;2024-01-30T07:39:01;18.02;;;12.63;;
72273;SDS011;60208;48.692;8.948;2024-01-30T07:41:26;20.42;;;13.02;;
72273;SDS011;60208;48.692;8.948;2024-01-30T07:43:51;20.80;;;13.65;;
72273;SDS011;60208;48.692;8.948;2024-01-30T07:46:18;18.27;;;11.57;;
72273;SDS011;60208;48.692;8.948;2024-01-30T07:48:43;17.13;;;11.25;;
72273;SDS011;60208;48.692;8.948;2024-01-30T07:51:09;15.35;;;10.93;;
72273;SDS011;60208;48.692;8.948;2024-01-30T07:53:34;16.85;;;10.68;;
72273;SDS011;60208;48.692;8.948;2024-01-30T07:55:59;17.42;;;11.45;;
72273;SDS011;60208;48.692;8.948;2024-01-30T07:58:24;15.02;;;10.57;;
72273;SDS011;60208;48.692;8.948;2024-01-30T08:00:52;16.67;;;11.00;;
72273;SDS011;60208;48.692;8.948;2024-01-30T08:03:18;15.88;;;11.60;;
72273;SDS011;60208;48.692;8.948;2024-01-30T08:05:43;16.63;;;11.70;;
72273;SDS011;60208;48.692;8.948;2024-01-30T08:08:08;18.88;;;11.07;;
72273;SDS011;60208;48.692;8.948;2024-01-30T08:10:34;19.83;;;10.88;;
72273;SDS011;60208;48.692;8.948;2024-01-30T08:12:59;18.30;;;11.13;;
72273;SDS011;60208;48.692;8.948;2024-01-30T08:15:24;14.45;;;11.13;;
72273;SDS011;60208;48.692;8.948;2024-01-30T08:17:49;18.95;;;10.88;;
72273;SDS011;60208;48.692;8.948;2024-01-30T08:20:15;16.30;;;10.20;;
72273;SDS011;60208;48.692;8.948;2024-01-30T08:22:41;16.63;;;10.27;;
72273;SDS011;60208;48.692;8.948;2024-01-30T08:25:06;14.90;;;10.50;;
72273;SDS011;60208;48.692;8.948;2024-01-30T08:27:35;17.02;;;10.98;;
72273;SDS011;60208;48.692;8.948;2024-01-30T08:30:02;18.25;;;12.90;;
72273;SDS011;60208;48.692;8.948;2024-01-30T08:32:27;19.60;;;12.60;;
72273;SDS011;60208;48.692;8.948;2024-01-30T08:34:53;35.38;;;22.10;;
72273;SDS011;60208;48.692;8.948;2024-01-30T08:37:18;27.77;;;18.42;;
72273;SDS011;60208;48.692;8.948;2024-01-30T08:39:44;44.25;;;26.30;;
72273;SDS011;60208;48.692;8.948;2024-01-30T08:42:09;39.78;;;25.38;;
72273;SDS011;60208;48.692;8.948;2024-01-30T08:44:35;40.88;;;24.35;;
72273;SDS011;60208;48.692;8.948;2024-01-30T08:47:00;47.37;;;28.57;;
72273;SDS011;60208;48.692;8.948;2024-01-30T08:49:25;43.47;;;26.90;;
72273;SDS011;60208;48.692;8.948;2024-01-30T08:51:51;35.27;;;20.10;;
72273;SDS011;60208;48.692;8.948;2024-01-30T08:54:16;23.13;;;14.85;;
72273;SDS011;60208;48.692;8.948;2024-01-30T08:56:42;21.52;;;15.77;;
72273;SDS011;60208;48.692;8.948;2024-01-30T08:59:07;25.55;;;15.15;;
72273;SDS011;60208;48.692;8.948;2024-01-30T09:01:33;24.07;;;15.00;;
72273;SDS011;60208;48.692;8.948;2024-01-30T09:03:58;26.83;;;15.98;;
72273;SDS011;60208;48.692;8.948;2024-01-30T09:06:23;21.45;;;14.48;;
72273;SDS011;60208;48.692;8.948;2024-01-30T09:08:51;31.50;;;18.75;;
72273;SDS011;60208;48.692;8.948;2024-01-30T09:11:16;26.23;;;15.15;;
72273;SDS011;60208;48.692;8.948;2024-01-30T09:13:42;20.67;;;13.27;;
72273;SDS011;60208;48.692;8.948;2024-01-30T09:16:08;22.90;;;15.57;;
72273;SDS011;60208;48.692;8.948;2024-01-30T09:18:33;23.53;;;13.67;;
72273;SDS011;60208;48.692;8.948;2024-01-30T09:20:58;26.57;;;13.97;;
72273;SDS011;60208;48.692;8.948;2024-01-30T09:23:24;29.67;;;14.87;;
72273;SDS011;60208;48.692;8.948;2024-01-30T09:25:49;27.58;;;15.13;;
72273;SDS011;60208;48.692;8.948;2024-01-30T09:28:15;20.88;;;12.88;;
72273;SDS011;60208;48.692;8.948;2024-01-30T09:30:40;20.73;;;11.88;;
72273;SDS011;60208;48.692;8.948;2024-01-30T09:33:06;23.15;;;11.43;;
72273;SDS011;60208;48.692;8.948;2024-01-30T09:35:31;18.17;;;11.23;;
72273;SDS011;60208;48.692;8.948;2024-01-30T09:37:57;17.52;;;11.10;;
72273;SDS011;60208;48.692;8.948;2024-01-30T09:40:23;18.80;;;11.85;;
72273;SDS011;60208;48.692;8.948;2024-01-30T09:42:48;25.10;;;11.75;;
72273;SDS011;60208;48.692;8.948;2024-01-30T09:45:15;22.85;;;12.05;;
72273;SDS011;60208;48.692;8.948;2024-01-30T09:47:42;18.08;;;11.93;;
72273;SDS011;60208;48.692;8.948;2024-01-30T09:50:08;20.92;;;11.20;;
72273;SDS011;60208;48.692;8.948;2024-01-30T09:52:34;24.45;;;13.77;;
72273;SDS011;60208;48.692;8.948;2024-01-30T09:54:59;17.38;;;12.02;;
72273;SDS011;60208;48.692;8.948;2024-01-30T09:57:25;18.63;;;11.38;;
72273;SDS011;60208;48.692;8.948;2024-01-30T09:59:53;20.05;;;11.60;;
72273;SDS011;60208;48.692;8.948;2024-01-30T10:02:22;19.05;;;11.25;;
72273;SDS011;60208;48.692;8.948;2024-01-30T10:04:51;17.75;;;9.82;;
72273;SDS011;60208;48.692;8.948;2024-01-30T10:07:17;15.52;;;9.52;;
72273;SDS011;60208;48.692;8.948;2024-01-30T10:09:42;16.20;;;9.82;;
72273;SDS011;60208;48.692;8.948;2024-01-30T10:12:08;15.20;;;9.63;;
72273;SDS011;60208;48.692;8.948;2024-01-30T10:14:34;15.43;;;9.02;;
72273;SDS011;60208;48.692;8.948;2024-01-30T10:17:03;13.40;;;9.35;;
72273;SDS011;60208;48.692;8.948;2024-01-30T10:19:28;18.48;;;9.65;;
72273;SDS011;60208;48.692;8.948;2024-01-30T10:21:53;19.23;;;13.00;;
72273;SDS011;60208;48.692;8.948;2024-01-30T10:24:18;18.15;;;9.90;;
72273;SDS011;60208;48.692;8.948;2024-01-30T10:26:48;20.77;;;9.38;;
72273;SDS011;60208;48.692;8.948;2024-01-30T10:29:14;20.88;;;8.90;;
72273;SDS011;60208;48.692;8.948;2024-01-30T10:31:39;17.03;;;8.80;;
72273;SDS011;60208;48.692;8.948;2024-01-30T10:34:04;23.00;;;9.70;;
72273;SDS011;60208;48.692;8.948;2024-01-30T10:36:29;13.23;;;6.60;;
72273;SDS011;60208;48.692;8.948;2024-01-30T10:38:56;22.13;;;9.32;;
72273;SDS011;60208;48.692;8.948;2024-01-30T10:41:27;20.92;;;7.90;;
72273;SDS011;60208;48.692;8.948;2024-01-30T10:44:02;12.82;;;5.57;;
72273;SDS011;60208;48.692;8.948;2024-01-30T10:46:30;5.57;;;3.90;;
72273;SDS011;60208;48.692;8.948;2024-01-30T10:48:59;9.77;;;4.15;;
72273;SDS011;60208;48.692;8.948;2024-01-30T10:51:28;6.93;;;4.43;;
72273;SDS011;60208;48.692;8.948;2024-01-30T10:53:53;8.38;;;4.38;;
72273;SDS011;60208;48.692;8.948;2024-01-30T10:56:20;11.27;;;6.05;;
72273;SDS011;60208;48.692;8.948;2024-01-30T10:58:46;12.00;;;5.28;;
72273;SDS011;60208;48.692;8.948;2024-01-30T11:01:11;8.52;;;4.68;;
72273;SDS011;60208;48.692;8.948;2024-01-30T11:03:37;8.80;;;4.90;;
72273;SDS011;60208;48.692;8.948;2024-01-30T11:06:03;7.15;;;3.92;;
72273;SDS011;60208;48.692;8.948;2024-01-30T11:08:28;8.18;;;3.78;;
72273;SDS011;60208;48.692;8.948;2024-01-30T11:10:57;12.13;;;3.65;;
72273;SDS011;60208;48.692;8.948;2024-01-30T11:13:27;5.72;;;3.35;;
72273;SDS011;60208;48.692;8.948;2024-01-30T11:15:52;8.48;;;4.18;;
72273;SDS011;60208;48.692;8.948;2024-01-30T11:18:24;4.75;;;3.25;;
72273;SDS011;60208;48.692;8.948;2024-01-30T11:20:50;7.57;;;3.30;;
72273;SDS011;60208;48.692;8.948;2024-01-30T11:23:15;6.13;;;3.30;;
72273;SDS011;60208;48.692;8.948;2024-01-30T11:25:40;6.13;;;3.80;;
72273;SDS011;60208;48.692;8.948;2024-01-30T11:28:12;5.78;;;3.40;;
72273;SDS011;60208;48.692;8.948;2024-01-30T11:30:38;5.13;;;3.30;;
72273;SDS011;60208;48.692;8.948;2024-01-30T11:33:10;5.25;;;2.88;;
72273;SDS011;60208;48.692;8.948;2024-01-30T11:35:42;5.75;;;3.30;;
72273;SDS011;60208;48.692;8.948;2024-01-30T11:38:08;6.97;;;4.10;;
72273;SDS011;60208;48.692;8.948;2024-01-30T11:40:34;7.15;;;3.45;;
72273;SDS011;60208;48.692;8.948;2024-01-30T11:43:00;5.63;;;4.57;;
72273;SDS011;60208;48.692;8.948;2024-01-30T11:45:26;9.30;;;5.68;;
72273;SDS011;60208;48.692;8.948;2024-01-30T11:47:51;9.13;;;4.93;;
72273;SDS011;60208;48.692;8.948;2024-01-30T11:50:17;8.13;;;4.18;;
72273;SDS011;60208;48.692;8.948;2024-01-30T11:52:42;6.60;;;4.80;;
72273;SDS011;60208;48.692;8.948;2024-01-30T11:55:08;7.10;;;4.03;;
72273;SDS011;60208;48.692;8.948;2024-01-30T11:57:34;5.78;;;3.38;;
72273;SDS011;60208;48.692;8.948;2024-01-30T12:00:01;4.90;;;3.85;;
72273;SDS011;60208;48.692;8.948;2024-01-30T12:02:26;8.38;;;4.03;;
72273;SDS011;60208;48.692;8.948;2024-01-30T12:04:52;7.90;;;3.90;;
72273;SDS011;60208;48.692;8.948;2024-01-30T12:07:17;9.98;;;3.95;;
72273;SDS011;60208;48.692;8.948;2024-01-30T12:09:51;9.43;;;3.70;;
72273;SDS011;60208;48.692;8.948;2024-01-30T12:12:16;10.32;;;3.90;;
72273;SDS011;60208;48.692;8.948;2024-01-30T12:14:42;6.33;;;3.57;;
72273;SDS011;60208;48.692;8.948;2024-01-30T12:17:07;11.70;;;3.50;;
72273;SDS011;60208;48.692;8.948;2024-01-30T12:19:34;9.30;;;3.40;;
72273;SDS011;60208;48.692;8.948;2024-01-30T12:21:59;4.72;;;3.05;;
72273;SDS011;60208;48.692;8.948;2024-01-30T12:24:25;16.77;;;8.60;;
72273;SDS011;60208;48.692;8.948;2024-01-30T12:26:50;10.90;;;4.60;;
72273;SDS011;60208;48.692;8.948;2024-01-30T12:29:16;7.82;;;3.58;;
72273;SDS011;60208;48.692;8.948;2024-01-30T12:31:42;11.02;;;3.53;;
72273;SDS011;60208;48.692;8.948;2024-01-30T12:34:07;10.02;;;3.75;;
72273;SDS011;60208;48.692;8.948;2024-01-30T12:36:34;6.20;;;3.55;;
72273;SDS011;60208;48.692;8.948;2024-01-30T12:39:01;6.28;;;3.60;;
72273;SDS011;60208;48.692;8.948;2024-01-30T12:41:26;6.45;;;3.58;;
72273;SDS011;60208;48.692;8.948;2024-01-30T12:43:54;4.60;;;3.60;;
72273;SDS011;60208;48.692;8.948;2024-01-30T12:46:19;5.55;;;3.28;;
72273;SDS011;60208;48.692;8.948;2024-01-30T12:48:44;7.63;;;4.27;;
72273;SDS011;60208;48.692;8.948;2024-01-30T12:51:09;7.10;;;3.40;;
72273;SDS011;60208;48.692;8.948;2024-01-30T12:53:35;6.17;;;3.60;;
72273;SDS011;60208;48.692;8.948;2024-01-30T12:56:00;9.52;;;4.10;;
72273;SDS011;60208;48.692;8.948;2024-01-30T12:58:25;6.85;;;4.07;;
72273;SDS011;60208;48.692;8.948;2024-01-30T13:00:50;9.87;;;4.50;;
72273;SDS011;60208;48.692;8.948;2024-01-30T13:03:16;5.72;;;3.75;;
72273;SDS011;60208;48.692;8.948;2024-01-30T13:05:41;7.35;;;3.80;;
72273;SDS011;60208;48.692;8.948;2024-01-30T13:08:07;5.82;;;3.30;;
72273;SDS011;60208;48.692;8.948;2024-01-30T13:10:32;6.10;;;2.90;;
72273;SDS011;60208;48.692;8.948;2024-01-30T13:12:57;6.07;;;3.30;;
72273;SDS011;60208;48.692;8.948;2024-01-30T13:15:23;12.40;;;3.30;;
72273;SDS011;60208;48.692;8.948;2024-01-30T13:17:48;7.03;;;3.20;;
72273;SDS011;60208;48.692;8.948;2024-01-30T13:20:14;7.47;;;3.40;;
72273;SDS011;60208;48.692;8.948;2024-01-30T13:22:44;5.75;;;3.20;;
72273;SDS011;60208;48.692;8.948;2024-01-30T13:25:09;5.40;;;3.38;;
72273;SDS011;60208;48.692;8.948;2024-01-30T13:27:35;5.72;;;3.15;;
72273;SDS011;60208;48.692;8.948;2024-01-30T13:30:00;4.97;;;3.00;;
72273;SDS011;60208;48.692;8.948;2024-01-30T13:32:25;5.80;;;3.10;;
72273;SDS011;60208;48.692;8.948;2024-01-30T13:34:51;4.33;;;2.90;;
72273;SDS011;60208;48.692;8.948;2024-01-30T13:37:16;5.37;;;2.90;;
72273;SDS011;60208;48.692;8.948;2024-01-30T13:39:41;5.10;;;3.00;;
72273;SDS011;60208;48.692;8.948;2024-01-30T13:42:06;7.63;;;3.23;;
72273;SDS011;60208;48.692;8.948;2024-01-30T13:44:34;8.00;;;3.90;;
72273;SDS011;60208;48.692;8.948;2024-01-30T13:46:59;9.23;;;3.13;;
72273;SDS011;60208;48.692;8.948;2024-01-30T13:49:27;7.20;;;2.85;;
72273;SDS011;60208;48.692;8.948;2024-01-30T13:51:54;5.00;;;3.10;;
72273;SDS011;60208;48.692;8.948;2024-01-30T13:54:19;9.30;;;3.08;;
72273;SDS011;60208;48.692;8.948;2024-01-30T13:56:44;10.07;;;3.10;;
72273;SDS011;60208;48.692;8.948;2024-01-30T13:59:10;5.50;;;2.90;;
72273;SDS011;60208;48.692;8.948;2024-01-30T14:01:35;10.52;;;2.83;;
72273;SDS011;60208;48.692;8.948;2024-01-30T14:04:00;3.40;;;2.60;;
72273;SDS011;60208;48.692;8.948;2024-01-30T14:06:25;7.50;;;3.20;;
72273;SDS011;60208;48.692;8.948;2024-01-30T14:08:51;5.13;;;2.70;;
72273;SDS011;60208;48.692;8.948;2024-01-30T14:11:16;5.90;;;2.87;;
72273;SDS011;60208;48.692;8.948;2024-01-30T14:13:41;4.15;;;2.75;;
72273;SDS011;60208;48.692;8.948;2024-01-30T14:16:06;4.90;;;2.90;;
72273;SDS011;60208;48.692;8.948;2024-01-30T14:18:32;6.82;;;2.90;;
72273;SDS011;60208;48.692;8.948;2024-01-30T14:20:57;4.77;;;2.83;;
72273;SDS011;60208;48.692;8.948;2024-01-30T14:23:22;13.37;;;2.87;;